sensor_id;sensor_type;location;lat;lon;timestamp;pressure;altitude;pressure_sealevel;temperature;humidity
49451;BME280;35336;48.400;10.886;2023-08-08T00:00:03;96472.81;;;11.35;84.82
49451;BME280;35336;48.400;10.886;2023-08-08T00:00:19;96474.91;;;11.40;84.66
49451;BME280;35336;48.400;10.886;2023-08-08T00:00:36;96485.41;;;11.41;84.44
49451;BME280;35336;48.400;10.886;2023-08-08T00:00:52;96485.59;;;11.40;84.30
49451;BME280;35336;48.400;10.886;2023-08-08T00:01:07;96483.13;;;11.38;84.53
49451;BME280;35336;48.400;10.886;2023-08-08T00:01:22;96485.16;;;11.36;84.47
49451;BME280;35336;48.400;10.886;2023-08-08T00:01:38;96465.00;;;11.27;84.42
49451;BME280;35336;48.400;10.886;2023-08-08T00:01:55;96472.81;;;11.35;84.63
49451;BME280;35336;48.400;10.886;2023-08-08T00:02:11;96463.78;;;11.30;84.63
49451;BME280;35336;48.400;10.886;2023-08-08T00:02:26;96474.47;;;11.36;84.25
49451;BME280;35336;48.400;10.886;2023-08-08T00:02:41;96480.84;;;11.35;84.27
49451;BME280;35336;48.400;10.886;2023-08-08T00:02:57;96465.00;;;11.27;84.55
49451;BME280;35336;48.400;10.886;2023-08-08T00:03:12;96481.88;;;11.34;84.70
49451;BME280;35336;48.400;10.886;2023-08-08T00:03:30;96470.78;;;11.31;84.62
49451;BME280;35336;48.400;10.886;2023-08-08T00:03:45;96483.91;;;11.32;84.63
49451;BME280;35336;48.400;10.886;2023-08-08T00:04:03;96481.25;;;11.32;84.67
49451;BME280;35336;48.400;10.886;2023-08-08T00:04:18;96469.06;;;11.23;84.86
49451;BME280;35336;48.400;10.886;2023-08-08T00:04:34;96465.97;;;11.19;85.00
49451;BME280;35336;48.400;10.886;2023-08-08T00:04:49;96484.72;;;11.26;84.89
49451;BME280;35336;48.400;10.886;2023-08-08T00:05:04;96486.16;;;11.28;84.92
49451;BME280;35336;48.400;10.886;2023-08-08T00:05:20;96468.06;;;11.24;84.93
49451;BME280;35336;48.400;10.886;2023-08-08T00:05:35;96482.91;;;11.33;84.76
49451;BME280;35336;48.400;10.886;2023-08-08T00:05:50;96482.69;;;11.35;84.93
49451;BME280;35336;48.400;10.886;2023-08-08T00:06:06;96483.72;;;11.34;84.60
49451;BME280;35336;48.400;10.886;2023-08-08T00:06:23;96482.91;;;11.33;84.68
49451;BME280;35336;48.400;10.886;2023-08-08T00:06:39;96483.72;;;11.34;84.61
49451;BME280;35336;48.400;10.886;2023-08-08T00:06:54;96487.59;;;11.31;84.46
49451;BME280;35336;48.400;10.886;2023-08-08T00:07:09;96471.38;;;11.26;84.52
49451;BME280;35336;48.400;10.886;2023-08-08T00:07:24;96478.78;;;11.31;84.48
49451;BME280;35336;48.400;10.886;2023-08-08T00:07:42;96480.59;;;11.30;84.71
49451;BME280;35336;48.400;10.886;2023-08-08T00:07:58;96483.06;;;11.32;84.55
49451;BME280;35336;48.400;10.886;2023-08-08T00:08:13;96490.06;;;11.33;84.62
49451;BME280;35336;48.400;10.886;2023-08-08T00:08:28;96483.91;;;11.32;84.69
49451;BME280;35336;48.400;10.886;2023-08-08T00:08:44;96461.44;;;11.20;84.81
49451;BME280;35336;48.400;10.886;2023-08-08T00:08:59;96478.56;;;11.32;84.48
49451;BME280;35336;48.400;10.886;2023-08-08T00:09:14;96479.38;;;11.33;84.74
49451;BME280;35336;48.400;10.886;2023-08-08T00:09:29;96461.28;;;11.21;84.50
49451;BME280;35336;48.400;10.886;2023-08-08T00:09:47;96471.59;;;11.31;84.60
49451;BME280;35336;48.400;10.886;2023-08-08T00:10:02;96486.81;;;11.37;84.59
49451;BME280;35336;48.400;10.886;2023-08-08T00:10:18;96470.16;;;11.35;84.57
49451;BME280;35336;48.400;10.886;2023-08-08T00:10:33;96469.56;;;11.33;84.40
49451;BME280;35336;48.400;10.886;2023-08-08T00:10:49;96476.75;;;11.39;84.39
49451;BME280;35336;48.400;10.886;2023-08-08T00:11:07;96477.78;;;11.38;84.52
49451;BME280;35336;48.400;10.886;2023-08-08T00:11:22;96476.97;;;11.38;84.21
49451;BME280;35336;48.400;10.886;2023-08-08T00:11:37;96479.44;;;11.39;84.32
49451;BME280;35336;48.400;10.886;2023-08-08T00:11:52;96476.56;;;11.41;84.07
49451;BME280;35336;48.400;10.886;2023-08-08T00:12:10;96471.63;;;11.38;84.16
49451;BME280;35336;48.400;10.886;2023-08-08T00:12:26;96465.06;;;11.40;83.80
49451;BME280;35336;48.400;10.886;2023-08-08T00:12:41;96483.56;;;11.42;84.13
49451;BME280;35336;48.400;10.886;2023-08-08T00:12:59;96473.06;;;11.40;84.09
49451;BME280;35336;48.400;10.886;2023-08-08T00:13:17;96475.75;;;11.40;83.85
49451;BME280;35336;48.400;10.886;2023-08-08T00:13:32;96463.38;;;11.33;83.88
49451;BME280;35336;48.400;10.886;2023-08-08T00:13:50;96473.06;;;11.40;83.68
49451;BME280;35336;48.400;10.886;2023-08-08T00:14:05;96472.66;;;11.37;83.65
49451;BME280;35336;48.400;10.886;2023-08-08T00:14:21;96468.75;;;11.39;83.99
49451;BME280;35336;48.400;10.886;2023-08-08T00:14:36;96467.50;;;11.35;84.00
49451;BME280;35336;48.400;10.886;2023-08-08T00:14:51;96473.88;;;11.41;83.91
49451;BME280;35336;48.400;10.886;2023-08-08T00:15:07;96462.16;;;11.35;84.02
49451;BME280;35336;48.400;10.886;2023-08-08T00:15:22;96463.78;;;11.36;83.82
49451;BME280;35336;48.400;10.886;2023-08-08T00:15:41;96470.41;;;11.40;83.77
49451;BME280;35336;48.400;10.886;2023-08-08T00:15:56;96471.44;;;11.39;83.96
49451;BME280;35336;48.400;10.886;2023-08-08T00:16:12;96470.16;;;11.35;83.86
49451;BME280;35336;48.400;10.886;2023-08-08T00:16:27;96462.34;;;11.34;83.66
49451;BME280;35336;48.400;10.886;2023-08-08T00:16:42;96478.59;;;11.39;84.08
49451;BME280;35336;48.400;10.886;2023-08-08T00:16:58;96461.94;;;11.30;83.70
49451;BME280;35336;48.400;10.886;2023-08-08T00:17:16;96462.34;;;11.34;83.81
49451;BME280;35336;48.400;10.886;2023-08-08T00:17:31;96471.63;;;11.38;83.77
49451;BME280;35336;48.400;10.886;2023-08-08T00:17:46;96470.41;;;11.40;83.86
49451;BME280;35336;48.400;10.886;2023-08-08T00:18:04;96469.97;;;11.37;83.91
49451;BME280;35336;48.400;10.886;2023-08-08T00:18:22;96461.72;;;11.32;83.76
49451;BME280;35336;48.400;10.886;2023-08-08T00:18:38;96467.75;;;11.40;83.70
49451;BME280;35336;48.400;10.886;2023-08-08T00:18:53;96475.75;;;11.40;83.85
49451;BME280;35336;48.400;10.886;2023-08-08T00:19:08;96476.75;;;11.39;83.88
49451;BME280;35336;48.400;10.886;2023-08-08T00:19:26;96465.44;;;11.31;83.67
49451;BME280;35336;48.400;10.886;2023-08-08T00:19:44;96471.81;;;11.36;83.84
49451;BME280;35336;48.400;10.886;2023-08-08T00:20:02;96474.09;;;11.39;83.63
49451;BME280;35336;48.400;10.886;2023-08-08T00:20:19;96476.75;;;11.39;83.81
49451;BME280;35336;48.400;10.886;2023-08-08T00:20:37;96475.91;;;11.39;83.64
49451;BME280;35336;48.400;10.886;2023-08-08T00:20:57;96465.22;;;11.32;83.57
49451;BME280;35336;48.400;10.886;2023-08-08T00:21:15;96454.13;;;11.28;83.78
49451;BME280;35336;48.400;10.886;2023-08-08T00:21:30;96469.13;;;11.36;83.74
49451;BME280;35336;48.400;10.886;2023-08-08T00:21:45;96471.19;;;11.34;83.84
49451;BME280;35336;48.400;10.886;2023-08-08T00:22:01;96458.63;;;11.28;83.67
49451;BME280;35336;48.400;10.886;2023-08-08T00:22:18;96459.25;;;11.30;83.68
49451;BME280;35336;48.400;10.886;2023-08-08T00:22:33;96474.47;;;11.36;83.89
49451;BME280;35336;48.400;10.886;2023-08-08T00:22:49;96469.13;;;11.36;83.77
49451;BME280;35336;48.400;10.886;2023-08-08T00:23:04;96461.28;;;11.28;83.80
49451;BME280;35336;48.400;10.886;2023-08-08T00:23:19;96475.50;;;11.35;83.84
49451;BME280;35336;48.400;10.886;2023-08-08T00:23:37;96474.47;;;11.36;84.06
49451;BME280;35336;48.400;10.886;2023-08-08T00:23:52;96478.00;;;11.37;84.08
49451;BME280;35336;48.400;10.886;2023-08-08T00:24:08;96472.22;;;11.33;83.85
49451;BME280;35336;48.400;10.886;2023-08-08T00:24:23;96463.97;;;11.28;83.79
49451;BME280;35336;48.400;10.886;2023-08-08T00:24:38;96476.53;;;11.34;83.99
49451;BME280;35336;48.400;10.886;2023-08-08T00:24:54;96476.13;;;11.37;83.82
49451;BME280;35336;48.400;10.886;2023-08-08T00:25:09;96474.31;;;11.38;83.76
49451;BME280;35336;48.400;10.886;2023-08-08T00:25:24;96469.97;;;11.37;83.79
49451;BME280;35336;48.400;10.886;2023-08-08T00:25:40;96460.28;;;11.29;83.69
49451;BME280;35336;48.400;10.886;2023-08-08T00:25:55;96476.13;;;11.37;83.70
49451;BME280;35336;48.400;10.886;2023-08-08T00:26:10;96474.09;;;11.39;83.79
49451;BME280;35336;48.400;10.886;2023-08-08T00:26:28;96471.44;;;11.39;83.68
49451;BME280;35336;48.400;10.886;2023-08-08T00:26:48;96477.41;;;11.41;83.92
49451;BME280;35336;48.400;10.886;2023-08-08T00:27:07;96468.31;;;11.36;83.51
49451;BME280;35336;48.400;10.886;2023-08-08T00:27:22;96475.31;;;11.37;83.50
49451;BME280;35336;48.400;10.886;2023-08-08T00:27:37;96467.50;;;11.35;83.72
49451;BME280;35336;48.400;10.886;2023-08-08T00:27:52;96477.56;;;11.33;83.70
49451;BME280;35336;48.400;10.886;2023-08-08T00:28:08;96475.91;;;11.32;83.37
49451;BME280;35336;48.400;10.886;2023-08-08T00:28:26;96479.38;;;11.33;83.68
49451;BME280;35336;48.400;10.886;2023-08-08T00:28:41;96475.06;;;11.32;83.94
49451;BME280;35336;48.400;10.886;2023-08-08T00:28:56;96473.03;;;11.27;83.70
49451;BME280;35336;48.400;10.886;2023-08-08T00:29:14;96487.97;;;11.28;83.72
49451;BME280;35336;48.400;10.886;2023-08-08T00:29:31;96468.44;;;11.21;83.73
49451;BME280;35336;48.400;10.886;2023-08-08T00:29:47;96467.25;;;11.23;84.05
49451;BME280;35336;48.400;10.886;2023-08-08T00:30:02;96471.97;;;11.28;83.80
49451;BME280;35336;48.400;10.886;2023-08-08T00:30:17;96479.97;;;11.28;83.94
49451;BME280;35336;48.400;10.886;2023-08-08T00:30:33;96475.06;;;11.32;83.84
49451;BME280;35336;48.400;10.886;2023-08-08T00:30:50;96480.84;;;11.35;83.90
49451;BME280;35336;48.400;10.886;2023-08-08T00:31:06;96481.69;;;11.36;83.75
49451;BME280;35336;48.400;10.886;2023-08-08T00:31:23;96467.25;;;11.30;83.91
49451;BME280;35336;48.400;10.886;2023-08-08T00:31:39;96470.38;;;11.34;83.66
49451;BME280;35336;48.400;10.886;2023-08-08T00:31:56;96479.22;;;11.34;83.55
49451;BME280;35336;48.400;10.886;2023-08-08T00:32:11;96475.69;;;11.34;83.53
49451;BME280;35336;48.400;10.886;2023-08-08T00:32:27;96474.88;;;11.33;83.94
49451;BME280;35336;48.400;10.886;2023-08-08T00:32:42;96467.03;;;11.25;83.73
49451;BME280;35336;48.400;10.886;2023-08-08T00:32:57;96481.03;;;11.34;83.89
49451;BME280;35336;48.400;10.886;2023-08-08T00:33:13;96461.72;;;11.25;83.61
49451;BME280;35336;48.400;10.886;2023-08-08T00:33:28;96476.13;;;11.31;83.69
49451;BME280;35336;48.400;10.886;2023-08-08T00:33:43;96463.94;;;11.21;83.71
49451;BME280;35336;48.400;10.886;2023-08-08T00:34:01;96481.25;;;11.32;84.18
49451;BME280;35336;48.400;10.886;2023-08-08T00:34:16;96469.13;;;11.30;84.05
49451;BME280;35336;48.400;10.886;2023-08-08T00:34:31;96477.13;;;11.30;83.72
49451;BME280;35336;48.400;10.886;2023-08-08T00:34:47;96473.63;;;11.29;83.85
49451;BME280;35336;48.400;10.886;2023-08-08T00:35:02;96474.47;;;11.30;84.01
49451;BME280;35336;48.400;10.886;2023-08-08T00:35:18;96464.59;;;11.23;83.67
49451;BME280;35336;48.400;10.886;2023-08-08T00:35:33;96478.97;;;11.29;83.69
49451;BME280;35336;48.400;10.886;2023-08-08T00:35:48;96493.75;;;11.32;83.75
49451;BME280;35336;48.400;10.886;2023-08-08T00:36:04;96477.94;;;11.30;83.76
49451;BME280;35336;48.400;10.886;2023-08-08T00:36:19;96474.47;;;11.30;83.61
49451;BME280;35336;48.400;10.886;2023-08-08T00:36:34;96468.28;;;11.29;83.79
49451;BME280;35336;48.400;10.886;2023-08-08T00:36:50;96472.19;;;11.26;83.96
49451;BME280;35336;48.400;10.886;2023-08-08T00:37:05;96461.28;;;11.21;84.01
49451;BME280;35336;48.400;10.886;2023-08-08T00:37:20;96479.81;;;11.30;83.70
49451;BME280;35336;48.400;10.886;2023-08-08T00:37:36;96477.94;;;11.30;83.60
49451;BME280;35336;48.400;10.886;2023-08-08T00:37:51;96477.31;;;11.28;83.74
49451;BME280;35336;48.400;10.886;2023-08-08T00:38:06;96478.16;;;11.28;84.02
49451;BME280;35336;48.400;10.886;2023-08-08T00:38:26;96482.06;;;11.33;83.96
49451;BME280;35336;48.400;10.886;2023-08-08T00:38:42;96480.22;;;11.33;83.90
49451;BME280;35336;48.400;10.886;2023-08-08T00:38:57;96463.97;;;11.28;83.92
49451;BME280;35336;48.400;10.886;2023-08-08T00:39:12;96471.19;;;11.34;83.70
49451;BME280;35336;48.400;10.886;2023-08-08T00:39:27;96472.22;;;11.33;83.63
49451;BME280;35336;48.400;10.886;2023-08-08T00:39:45;96476.94;;;11.31;83.88
49451;BME280;35336;48.400;10.886;2023-08-08T00:40:01;96473.88;;;11.34;83.55
49451;BME280;35336;48.400;10.886;2023-08-08T00:40:16;96482.69;;;11.35;83.58
49451;BME280;35336;48.400;10.886;2023-08-08T00:40:31;96473.25;;;11.32;83.42
49451;BME280;35336;48.400;10.886;2023-08-08T00:40:47;96475.28;;;11.30;83.69
49451;BME280;35336;48.400;10.886;2023-08-08T00:41:02;96479.81;;;11.30;83.56
49451;BME280;35336;48.400;10.886;2023-08-08T00:41:17;96473.81;;;11.27;83.57
49451;BME280;35336;48.400;10.886;2023-08-08T00:41:35;96465.16;;;11.19;83.53
49451;BME280;35336;48.400;10.886;2023-08-08T00:41:50;96474.47;;;11.30;83.47
49451;BME280;35336;48.400;10.886;2023-08-08T00:42:05;96475.47;;;11.28;83.64
49451;BME280;35336;48.400;10.886;2023-08-08T00:42:21;96469.94;;;11.30;83.75
49451;BME280;35336;48.400;10.886;2023-08-08T00:42:36;96475.50;;;11.35;83.72
49451;BME280;35336;48.400;10.886;2023-08-08T00:42:51;96475.69;;;11.34;83.53
49451;BME280;35336;48.400;10.886;2023-08-08T00:43:07;96475.69;;;11.34;83.26
49451;BME280;35336;48.400;10.886;2023-08-08T00:43:22;96482.69;;;11.35;83.27
49451;BME280;35336;48.400;10.886;2023-08-08T00:43:37;96474.47;;;11.30;83.32
49451;BME280;35336;48.400;10.886;2023-08-08T00:43:55;96452.63;;;11.19;83.47
49451;BME280;35336;48.400;10.886;2023-08-08T00:44:10;96478.97;;;11.29;83.20
49451;BME280;35336;48.400;10.886;2023-08-08T00:44:25;96479.38;;;11.33;83.62
49451;BME280;35336;48.400;10.886;2023-08-08T00:44:46;96480.41;;;11.32;83.30
49451;BME280;35336;48.400;10.886;2023-08-08T00:45:04;96475.47;;;11.28;83.15
49451;BME280;35336;48.400;10.886;2023-08-08T00:45:19;96477.13;;;11.30;83.40
49451;BME280;35336;48.400;10.886;2023-08-08T00:45:34;96469.50;;;11.26;83.69
49451;BME280;35336;48.400;10.886;2023-08-08T00:45:50;96471.94;;;11.21;83.53
49451;BME280;35336;48.400;10.886;2023-08-08T00:46:05;96475.69;;;11.27;83.78
49451;BME280;35336;48.400;10.886;2023-08-08T00:46:22;96480.81;;;11.28;83.87
49451;BME280;35336;48.400;10.886;2023-08-08T00:46:39;96477.94;;;11.30;83.63
49451;BME280;35336;48.400;10.886;2023-08-08T00:46:55;96475.91;;;11.32;83.84
49451;BME280;35336;48.400;10.886;2023-08-08T00:47:10;96470.38;;;11.34;83.77
49451;BME280;35336;48.400;10.886;2023-08-08T00:47:31;96472.00;;;11.35;83.65
49451;BME280;35336;48.400;10.886;2023-08-08T00:47:46;96466.47;;;11.30;83.61
49451;BME280;35336;48.400;10.886;2023-08-08T00:48:02;96476.53;;;11.34;83.18
49451;BME280;35336;48.400;10.886;2023-08-08T00:48:17;96467.25;;;11.30;83.17
49451;BME280;35336;48.400;10.886;2023-08-08T00:48:33;96474.06;;;11.33;83.06
49451;BME280;35336;48.400;10.886;2023-08-08T00:48:50;96469.56;;;11.33;83.02
49451;BME280;35336;48.400;10.886;2023-08-08T00:49:06;96467.47;;;11.28;83.00
49451;BME280;35336;48.400;10.886;2023-08-08T00:49:24;96463.75;;;11.23;83.40
49451;BME280;35336;48.400;10.886;2023-08-08T00:49:39;96453.44;;;11.20;83.23
49451;BME280;35336;48.400;10.886;2023-08-08T00:49:55;96462.50;;;11.25;83.29
49451;BME280;35336;48.400;10.886;2023-08-08T00:50:12;96466.25;;;11.31;83.42
49451;BME280;35336;48.400;10.886;2023-08-08T00:50:28;96473.25;;;11.32;83.60
49451;BME280;35336;48.400;10.886;2023-08-08T00:50:48;96474.06;;;11.33;83.73
49451;BME280;35336;48.400;10.886;2023-08-08T00:51:05;96472.81;;;11.35;83.56
49451;BME280;35336;48.400;10.886;2023-08-08T00:51:21;96473.03;;;11.34;83.58
49451;BME280;35336;48.400;10.886;2023-08-08T00:51:37;96454.72;;;11.24;83.51
49451;BME280;35336;48.400;10.886;2023-08-08T00:51:55;96465.44;;;11.31;83.39
49451;BME280;35336;48.400;10.886;2023-08-08T00:52:10;96478.97;;;11.29;83.36
49451;BME280;35336;48.400;10.886;2023-08-08T00:52:28;96465.19;;;11.25;83.26
49451;BME280;35336;48.400;10.886;2023-08-08T00:52:44;96470.13;;;11.28;83.29
49451;BME280;35336;48.400;10.886;2023-08-08T00:53:02;96474.84;;;11.26;83.64
49451;BME280;35336;48.400;10.886;2023-08-08T00:53:19;96473.63;;;11.29;83.68
49451;BME280;35336;48.400;10.886;2023-08-08T00:53:36;96469.13;;;11.30;83.43
49451;BME280;35336;48.400;10.886;2023-08-08T00:53:52;96475.28;;;11.30;83.47
49451;BME280;35336;48.400;10.886;2023-08-08T00:54:08;96463.75;;;11.23;83.51
49451;BME280;35336;48.400;10.886;2023-08-08T00:54:25;96476.28;;;11.29;83.59
49451;BME280;35336;48.400;10.886;2023-08-08T00:54:41;96471.97;;;11.28;83.42
49451;BME280;35336;48.400;10.886;2023-08-08T00:54:56;96468.69;;;11.26;83.73
49451;BME280;35336;48.400;10.886;2023-08-08T00:55:12;96470.53;;;11.25;83.09
49451;BME280;35336;48.400;10.886;2023-08-08T00:55:31;96462.28;;;11.20;83.32
49451;BME280;35336;48.400;10.886;2023-08-08T00:55:46;96469.72;;;11.25;83.34
49451;BME280;35336;48.400;10.886;2023-08-08T00:56:01;96467.03;;;11.25;83.44
49451;BME280;35336;48.400;10.886;2023-08-08T00:56:17;96467.69;;;11.27;83.29
49451;BME280;35336;48.400;10.886;2023-08-08T00:56:33;96470.13;;;11.28;83.36
49451;BME280;35336;48.400;10.886;2023-08-08T00:56:48;96463.34;;;11.26;83.47
49451;BME280;35336;48.400;10.886;2023-08-08T00:57:04;96466.03;;;11.26;83.17
49451;BME280;35336;48.400;10.886;2023-08-08T00:57:22;96469.31;;;11.28;83.35
49451;BME280;35336;48.400;10.886;2023-08-08T00:57:38;96463.34;;;11.26;83.29
49451;BME280;35336;48.400;10.886;2023-08-08T00:57:53;96471.97;;;11.28;83.48
49451;BME280;35336;48.400;10.886;2023-08-08T00:58:09;96465.81;;;11.27;83.42
49451;BME280;35336;48.400;10.886;2023-08-08T00:58:27;96444.84;;;11.18;83.31
49451;BME280;35336;48.400;10.886;2023-08-08T00:58:45;96460.88;;;11.24;83.59
49451;BME280;35336;48.400;10.886;2023-08-08T00:59:04;96467.69;;;11.27;83.24
49451;BME280;35336;48.400;10.886;2023-08-08T00:59:21;96461.72;;;11.25;83.58
49451;BME280;35336;48.400;10.886;2023-08-08T00:59:38;96466.03;;;11.26;83.33
49451;BME280;35336;48.400;10.886;2023-08-08T01:00:00;96465.81;;;11.27;83.48
49451;BME280;35336;48.400;10.886;2023-08-08T01:00:15;96463.75;;;11.23;83.65
49451;BME280;35336;48.400;10.886;2023-08-08T01:00:33;96460.69;;;11.26;83.17
49451;BME280;35336;48.400;10.886;2023-08-08T01:00:48;96465.00;;;11.27;83.50
49451;BME280;35336;48.400;10.886;2023-08-08T01:01:03;96460.88;;;11.24;83.61
49451;BME280;35336;48.400;10.886;2023-08-08T01:01:21;96459.84;;;11.25;83.28
49451;BME280;35336;48.400;10.886;2023-08-08T01:01:36;96465.03;;;11.34;83.14
49451;BME280;35336;48.400;10.886;2023-08-08T01:01:52;96463.38;;;11.33;83.16
49451;BME280;35336;48.400;10.886;2023-08-08T01:02:07;96451.03;;;11.25;82.88
49451;BME280;35336;48.400;10.886;2023-08-08T01:02:22;96448.56;;;11.23;82.87
49451;BME280;35336;48.400;10.886;2023-08-08T01:02:40;96464.59;;;11.30;82.73
49451;BME280;35336;48.400;10.886;2023-08-08T01:02:55;96466.25;;;11.31;82.80
49451;BME280;35336;48.400;10.886;2023-08-08T01:03:10;96458.03;;;11.26;82.89
49451;BME280;35336;48.400;10.886;2023-08-08T01:03:26;96448.09;;;11.20;82.86
49451;BME280;35336;48.400;10.886;2023-08-08T01:03:41;96453.09;;;11.30;82.91
49451;BME280;35336;48.400;10.886;2023-08-08T01:03:59;96458.88;;;11.33;83.05
49451;BME280;35336;48.400;10.886;2023-08-08T01:04:17;96462.56;;;11.32;82.70
49451;BME280;35336;48.400;10.886;2023-08-08T01:04:33;96451.03;;;11.25;82.62
49451;BME280;35336;48.400;10.886;2023-08-08T01:04:53;96455.94;;;11.28;82.92
49451;BME280;35336;48.400;10.886;2023-08-08T01:05:08;96455.56;;;11.31;82.82
49451;BME280;35336;48.400;10.886;2023-08-08T01:05:31;96453.53;;;11.33;82.71
49451;BME280;35336;48.400;10.886;2023-08-08T01:06:31;96457.00;;;11.34;82.59
49451;BME280;35336;48.400;10.886;2023-08-08T01:06:58;96454.34;;;11.34;82.51
49451;BME280;35336;48.400;10.886;2023-08-08T01:08:04;96459.25;;;11.30;82.32
49451;BME280;35336;48.400;10.886;2023-08-08T01:08:22;96454.97;;;11.36;82.27
49451;BME280;35336;48.400;10.886;2023-08-08T01:08:48;96449.00;;;11.34;82.05
49451;BME280;35336;48.400;10.886;2023-08-08T01:09:55;96447.94;;;11.28;82.13
49451;BME280;35336;48.400;10.886;2023-08-08T01:10:15;96453.09;;;11.30;82.08
49451;BME280;35336;48.400;10.886;2023-08-08T01:10:34;96438.69;;;11.24;81.97
49451;BME280;35336;48.400;10.886;2023-08-08T01:10:52;96449.22;;;11.32;82.05
49451;BME280;35336;48.400;10.886;2023-08-08T01:11:08;96453.53;;;11.33;82.09
49451;BME280;35336;48.400;10.886;2023-08-08T01:11:27;96433.38;;;11.24;82.25
49451;BME280;35336;48.400;10.886;2023-08-08T01:11:44;96450.22;;;11.31;82.26
49451;BME280;35336;48.400;10.886;2023-08-08T01:12:01;96439.34;;;11.26;81.95
49451;BME280;35336;48.400;10.886;2023-08-08T01:12:17;96446.94;;;11.29;81.95
49451;BME280;35336;48.400;10.886;2023-08-08T01:12:39;96432.09;;;11.20;82.36
49451;BME280;35336;48.400;10.886;2023-08-08T01:13:00;96447.94;;;11.28;82.00
49451;BME280;35336;48.400;10.886;2023-08-08T01:13:20;96447.94;;;11.28;82.11
49451;BME280;35336;48.400;10.886;2023-08-08T01:13:39;96446.13;;;11.28;82.03
49451;BME280;35336;48.400;10.886;2023-08-08T01:13:55;96443.22;;;11.23;81.83
49451;BME280;35336;48.400;10.886;2023-08-08T01:14:11;96452.28;;;11.29;81.92
49451;BME280;35336;48.400;10.886;2023-08-08T01:14:28;96444.47;;;11.27;81.71
49451;BME280;35336;48.400;10.886;2023-08-08T01:14:47;96444.84;;;11.24;81.87
49451;BME280;35336;48.400;10.886;2023-08-08T01:15:04;96435.38;;;11.15;81.93
49451;BME280;35336;48.400;10.886;2023-08-08T01:15:22;96436.00;;;11.17;82.09
49451;BME280;35336;48.400;10.886;2023-08-08T01:15:38;96447.34;;;11.26;81.83
49451;BME280;35336;48.400;10.886;2023-08-08T01:15:55;96430.47;;;11.19;81.85
49451;BME280;35336;48.400;10.886;2023-08-08T01:16:12;96448.34;;;11.25;81.57
49451;BME280;35336;48.400;10.886;2023-08-08T01:16:28;96445.28;;;11.28;81.83
49451;BME280;35336;48.400;10.886;2023-08-08T01:16:45;96428.41;;;11.21;81.64
49451;BME280;35336;48.400;10.886;2023-08-08T01:17:00;96444.91;;;11.31;81.61
49451;BME280;35336;48.400;10.886;2023-08-08T01:17:17;96433.56;;;11.22;81.58
49451;BME280;35336;48.400;10.886;2023-08-08T01:17:35;96442.81;;;11.26;81.67
49451;BME280;35336;48.400;10.886;2023-08-08T01:17:53;96446.13;;;11.28;81.49
49451;BME280;35336;48.400;10.886;2023-08-08T01:18:10;96420.56;;;11.12;81.69
49451;BME280;35336;48.400;10.886;2023-08-08T01:18:27;96447.94;;;11.28;81.83
49451;BME280;35336;48.400;10.886;2023-08-08T01:18:44;96451.47;;;11.28;81.84
49451;BME280;35336;48.400;10.886;2023-08-08T01:19:01;96447.13;;;11.27;81.53
49451;BME280;35336;48.400;10.886;2023-08-08T01:19:25;96447.34;;;11.26;81.55
49451;BME280;35336;48.400;10.886;2023-08-08T01:19:44;96443.22;;;11.23;81.45
49451;BME280;35336;48.400;10.886;2023-08-08T01:19:59;96450.00;;;11.26;81.78
49451;BME280;35336;48.400;10.886;2023-08-08T01:20:15;96444.84;;;11.24;81.38
49451;BME280;35336;48.400;10.886;2023-08-08T01:20:34;96444.03;;;11.24;81.30
49451;BME280;35336;48.400;10.886;2023-08-08T01:20:53;96451.22;;;11.23;81.41
49451;BME280;35336;48.400;10.886;2023-08-08T01:21:09;96452.03;;;11.24;81.29
49451;BME280;35336;48.400;10.886;2023-08-08T01:21:28;96451.22;;;11.23;81.50
49451;BME280;35336;48.400;10.886;2023-08-08T01:21:45;96449.00;;;11.27;81.22
49451;BME280;35336;48.400;10.886;2023-08-08T01:22:09;96440.34;;;11.25;81.12
49451;BME280;35336;48.400;10.886;2023-08-08T01:22:36;96445.69;;;11.25;81.15
49451;BME280;35336;48.400;10.886;2023-08-08T01:24:23;96446.50;;;11.25;80.98
49451;BME280;35336;48.400;10.886;2023-08-08T01:24:39;96439.72;;;11.23;80.94
49451;BME280;35336;48.400;10.886;2023-08-08T01:24:55;96447.34;;;11.26;81.16
49451;BME280;35336;48.400;10.886;2023-08-08T01:25:11;96450.00;;;11.26;81.22
49451;BME280;35336;48.400;10.886;2023-08-08T01:25:26;96450.63;;;11.28;81.11
49451;BME280;35336;48.400;10.886;2023-08-08T01:25:42;96450.22;;;11.31;80.86
49451;BME280;35336;48.400;10.886;2023-08-08T01:25:59;96446.31;;;11.27;80.84
49451;BME280;35336;48.400;10.886;2023-08-08T01:26:15;96455.78;;;11.30;80.81
49451;BME280;35336;48.400;10.886;2023-08-08T01:26:33;96449.00;;;11.27;80.47
49451;BME280;35336;48.400;10.886;2023-08-08T01:26:49;96454.56;;;11.32;80.64
49451;BME280;35336;48.400;10.886;2023-08-08T01:27:04;96432.97;;;11.27;80.38
49451;BME280;35336;48.400;10.886;2023-08-08T01:27:22;96434.59;;;11.28;80.40
49451;BME280;35336;48.400;10.886;2023-08-08T01:27:40;96447.34;;;11.33;80.15
49451;BME280;35336;48.400;10.886;2023-08-08T01:27:55;96451.03;;;11.32;80.28
49451;BME280;35336;48.400;10.886;2023-08-08T01:28:11;96428.63;;;11.19;80.42
49451;BME280;35336;48.400;10.886;2023-08-08T01:28:28;96445.06;;;11.23;80.28
49451;BME280;35336;48.400;10.886;2023-08-08T01:28:44;96452.28;;;11.29;80.24
49451;BME280;35336;48.400;10.886;2023-08-08T01:28:59;96453.91;;;11.30;80.44
49451;BME280;35336;48.400;10.886;2023-08-08T01:29:15;96441.59;;;11.29;80.37
49451;BME280;35336;48.400;10.886;2023-08-08T01:29:30;96446.94;;;11.29;80.38
49451;BME280;35336;48.400;10.886;2023-08-08T01:29:45;96439.34;;;11.26;80.57
49451;BME280;35336;48.400;10.886;2023-08-08T01:30:03;96444.47;;;11.27;80.20